Time;durP1;ratioP1;P1;durP2;ratioP2;P2;SDS_P1;SDS_P2;PMS_P1;PMS_P2;Temp;Humidity;BMP_temperature;BMP_pressure;BME280_temperature;BME280_humidity;BME280_pressure;Samples;Min_cycle;Max_cycle;Signal;HPM_P1;HPM_P2
2022/03/05 00:00:10;;;;;;;;;;;;;;;-1.61;81.09;102403.56;2064204;28;44502;-66
2022/03/05 00:01:11;;;;;;;;;;;;;;;-1.62;80.71;102406.09;2064183;28;44211;-65
2022/03/05 00:02:13;;;;;;;;;;;;;;;-1.62;80.89;102401.75;2063947;28;41569;-66
2022/03/05 00:03:15;;;;;;;;;;;;;;;-1.59;80.54;102401.91;2064482;28;44602;-66
2022/03/05 00:04:18;;;;;;;;;;;;;;;-1.52;80.78;102408.38;2064436;28;46803;-66
2022/03/05 00:05:20;;;;;;;;;;;;;;;-1.56;80.21;102402.06;2063930;28;46366;-68
2022/03/05 00:06:21;;;;;;;;;;;;;;;-1.50;80.81;102396.22;2064136;28;44210;-65
2022/03/05 00:07:23;;;;;;;;;;;;;;;-1.49;80.28;102402.34;2063992;28;44205;-66
2022/03/05 00:08:25;;;;;;;;;;;;;;;-1.59;80.56;102393.13;2064173;28;44213;-65
2022/03/05 00:09:26;;;;;;;;;;;;;;;-1.56;80.60;102399.44;2064437;28;38614;-66
2022/03/05 00:10:28;;;;;;;;;;;;;;;-1.51;80.10;102398.75;2063815;28;46578;-66
2022/03/05 00:11:29;;;;;;;;;;;;;;;-1.54;80.60;102395.16;2064303;28;43251;-66
2022/03/05 00:12:31;;;;;;;;;;;;;;;-1.59;80.09;102393.13;2063503;28;46027;-66
2022/03/05 00:13:32;;;;;;;;;;;;;;;-1.61;80.22;102398.31;2064462;28;44922;-66
2022/03/05 00:14:34;;;;;;;;;;;;;;;-1.56;80.20;102395.91;2064233;28;45622;-65
2022/03/05 00:15:36;;;;;;;;;;;;;;;-1.56;80.45;102398.53;2064845;28;19930;-66
2022/03/05 00:16:38;;;;;;;;;;;;;;;-1.58;80.33;102395.84;2064032;28;44005;-66
2022/03/05 00:17:40;;;;;;;;;;;;;;;-1.61;80.50;102387.78;2064145;28;44403;-65
2022/03/05 00:18:41;;;;;;;;;;;;;;;-1.59;80.46;102396.66;2063629;28;46085;-65
2022/03/05 00:19:43;;;;;;;;;;;;;;;-1.67;80.23;102400.63;2064963;28;20064;-65
2022/03/05 00:20:45;;;;;;;;;;;;;;;-1.69;80.75;102397.00;2063994;28;46302;-65
2022/03/05 00:21:49;;;;;;;;;;;;;;;-1.70;80.56;102399.56;2065280;28;19930;-67
2022/03/05 00:22:52;;;;;;;;;;;;;;;-1.67;80.33;102390.13;2064137;28;40349;-65
2022/03/05 00:23:53;;;;;;;;;;;;;;;-1.64;80.34;102403.38;2064452;28;44541;-66
2022/03/05 00:24:55;;;;;;;;;;;;;;;-1.60;80.34;102392.25;2063844;28;45392;-66
2022/03/05 00:25:58;;;;;;;;;;;;;;;-1.61;80.09;102400.94;2063975;28;45445;-66
2022/03/05 00:26:59;;;;;;;;;;;;;;;-1.57;80.34;102395.00;2064127;28;41061;-67
2022/03/05 00:28:01;;;;;;;;;;;;;;;-1.54;79.82;102395.16;2063875;28;35854;-66
2022/03/05 00:29:03;;;;;;;;;;;;;;;-1.53;80.01;102403.94;2064127;28;20064;-66
2022/03/05 00:30:05;;;;;;;;;;;;;;;-1.48;79.41;102398.91;2063482;28;42948;-66
2022/03/05 00:31:06;;;;;;;;;;;;;;;-1.51;79.39;102397.03;2063754;28;44552;-66
2022/03/05 00:32:08;;;;;;;;;;;;;;;-1.60;79.65;102400.13;2063486;28;45733;-66
2022/03/05 00:33:10;;;;;;;;;;;;;;;-1.62;80.06;102388.59;2064158;28;44520;-68
2022/03/05 00:34:11;;;;;;;;;;;;;;;-1.61;80.24;102400.94;2064363;28;19930;-65
2022/03/05 00:35:13;;;;;;;;;;;;;;;-1.67;79.64;102389.19;2063811;28;43895;-67
2022/03/05 00:36:15;;;;;;;;;;;;;;;-1.66;79.94;102391.91;2063811;28;45579;-67
2022/03/05 00:37:17;;;;;;;;;;;;;;;-1.71;80.08;102385.53;2062900;28;44746;-65
2022/03/05 00:38:18;;;;;;;;;;;;;;;-1.68;80.27;102390.03;2063832;28;43554;-65
2022/03/05 00:39:20;;;;;;;;;;;;;;;-1.68;80.54;102380.44;2063715;28;46762;-65
2022/03/05 00:40:21;;;;;;;;;;;;;;;-1.68;80.19;102390.94;2064014;28;43061;-66
2022/03/05 00:41:23;;;;;;;;;;;;;;;-1.77;80.77;102379.97;2063194;28;46194;-66
2022/03/05 00:42:25;;;;;;;;;;;;;;;-1.70;80.04;102386.44;2063605;28;44861;-67
2022/03/05 00:43:26;;;;;;;;;;;;;;;-1.67;80.27;102391.81;2063917;28;45370;-66
2022/03/05 00:44:28;;;;;;;;;;;;;;;-1.71;80.23;102382.00;2063574;28;47309;-68
2022/03/05 00:45:30;;;;;;;;;;;;;;;-1.75;80.35;102388.81;2063842;28;43206;-67
2022/03/05 00:46:31;;;;;;;;;;;;;;;-1.74;80.38;102388.03;2063411;28;45598;-67
2022/03/05 00:47:34;;;;;;;;;;;;;;;-1.67;80.47;102387.50;2063909;28;39486;-67
2022/03/05 00:48:36;;;;;;;;;;;;;;;-1.69;80.19;102391.75;2064111;28;46297;-67
2022/03/05 00:49:37;;;;;;;;;;;;;;;-1.72;79.93;102386.38;2063812;28;44902;-67
2022/03/05 00:50:39;;;;;;;;;;;;;;;-1.70;80.39;102389.97;2064116;28;46068;-67
2022/03/05 00:51:41;;;;;;;;;;;;;;;-1.68;80.19;102379.53;2063618;28;44255;-67
2022/03/05 00:52:42;;;;;;;;;;;;;;;-1.65;80.44;102385.84;2063545;28;46244;-67
2022/03/05 00:53:44;;;;;;;;;;;;;;;-1.68;79.68;102385.69;2063870;28;44594;-67
2022/03/05 00:54:45;;;;;;;;;;;;;;;-1.68;80.37;102377.81;2064112;28;45785;-67
2022/03/05 00:55:50;;;;;;;;;;;;;;;-1.61;80.24;102390.41;2064926;28;20064;-67
2022/03/05 00:56:51;;;;;;;;;;;;;;;-1.64;80.00;102382.38;2063647;28;45248;-67
2022/03/05 00:57:53;;;;;;;;;;;;;;;-1.61;80.55;102387.78;2063327;28;46413;-67
2022/03/05 00:58:55;;;;;;;;;;;;;;;-1.63;80.42;102383.31;2064012;28;20007;-67
2022/03/05 00:59:58;;;;;;;;;;;;;;;-1.63;80.84;102376.31;2063738;28;21032;-67
2022/03/05 01:00:59;;;;;;;;;;;;;;;-1.54;80.56;102384.66;2063569;28;44248;-67
2022/03/05 01:02:01;;;;;;;;;;;;;;;-1.51;80.28;102381.25;2063054;28;45350;-67
2022/03/05 01:03:03;;;;;;;;;;;;;;;-1.51;79.77;102380.38;2064219;28;19926;-66
2022/03/05 01:04:05;;;;;;;;;;;;;;;-1.45;80.09;102380.69;2063322;28;43082;-66
2022/03/05 01:05:08;;;;;;;;;;;;;;;-1.51;79.99;102380.38;2063445;28;45583;-66
2022/03/05 01:06:09;;;;;;;;;;;;;;;-1.57;80.23;102379.25;2063627;28;34626;-66
2022/03/05 01:07:11;;;;;;;;;;;;;;;-1.63;80.25;102381.56;2063266;28;44244;-65
2022/03/05 01:08:15;;;;;;;;;;;;;;;-1.58;80.42;102393.22;2062990;28;46713;-66
2022/03/05 01:09:16;;;;;;;;;;;;;;;-1.59;80.51;102390.50;2063543;28;36673;-67
2022/03/05 01:10:18;;;;;;;;;;;;;;;-1.58;80.49;102381.78;2063130;28;43032;-67
2022/03/05 01:11:19;;;;;;;;;;;;;;;-1.57;80.39;102384.50;2063311;28;46450;-68
2022/03/05 01:12:22;;;;;;;;;;;;;;;-1.59;80.46;102390.50;2062471;28;42008;-66
2022/03/05 01:13:23;;;;;;;;;;;;;;;-1.40;80.11;102393.22;2063244;28;44424;-65
2022/03/05 01:14:27;;;;;;;;;;;;;;;-1.35;79.95;102390.81;2062968;28;45852;-66
2022/03/05 01:15:29;;;;;;;;;;;;;;;-1.42;80.08;102379.13;2063102;28;43605;-65
2022/03/05 01:16:30;;;;;;;;;;;;;;;-1.28;80.20;102389.38;2063054;28;45861;-66
2022/03/05 01:17:32;;;;;;;;;;;;;;;-1.41;79.77;102383.53;2063718;28;35026;-66
2022/03/05 01:18:34;;;;;;;;;;;;;;;-1.41;80.56;102390.53;2062236;28;46838;-66
2022/03/05 01:19:35;;;;;;;;;;;;;;;-1.41;80.11;102390.53;2063154;28;46117;-65
2022/03/05 01:20:37;;;;;;;;;;;;;;;-1.45;80.66;102399.09;2063945;28;19918;-67
2022/03/05 01:21:38;;;;;;;;;;;;;;;-1.45;80.86;102396.47;2062722;28;46086;-66
2022/03/05 01:22:43;;;;;;;;;;;;;;;-1.47;81.01;102393.75;2063951;28;20212;-68
2022/03/05 01:23:44;;;;;;;;;;;;;;;-1.48;81.37;102393.66;2063178;28;44559;-67
2022/03/05 01:24:46;;;;;;;;;;;;;;;-1.47;81.48;102396.38;2062708;28;47108;-66
2022/03/05 01:25:47;;;;;;;;;;;;;;;-1.44;81.17;102395.59;2063238;28;45246;-66
2022/03/05 01:26:49;;;;;;;;;;;;;;;-1.47;81.26;102396.38;2062761;28;45537;-68
2022/03/05 01:27:51;;;;;;;;;;;;;;;-1.48;81.23;102399.81;2063091;28;41794;-67
2022/03/05 01:28:52;;;;;;;;;;;;;;;-1.45;81.51;102396.47;2062734;28;44402;-67
2022/03/05 01:29:56;;;;;;;;;;;;;;;-1.45;81.39;102392.09;2063239;28;45914;-67
2022/03/05 01:30:58;;;;;;;;;;;;;;;-1.45;81.51;102391.19;2062158;28;39612;-67
2022/03/05 01:32:00;;;;;;;;;;;;;;;-1.48;81.45;102391.94;2063215;28;45546;-68
2022/03/05 01:33:01;;;;;;;;;;;;;;;-1.36;81.42;102394.28;2062967;28;44148;-66
2022/03/05 01:34:03;;;;;;;;;;;;;;;-1.43;81.33;102386.91;2063024;28;37999;-66
2022/03/05 01:35:05;;;;;;;;;;;;;;;-1.52;81.52;102387.38;2062678;28;46750;-67
2022/03/05 01:36:07;;;;;;;;;;;;;;;-1.56;81.94;102386.31;2062985;28;42913;-67
2022/03/05 01:37:08;;;;;;;;;;;;;;;-1.51;81.83;102378.63;2062263;28;45344;-66
2022/03/05 01:38:10;;;;;;;;;;;;;;;-1.43;82.00;102381.66;2063419;28;43470;-67
2022/03/05 01:39:12;;;;;;;;;;;;;;;-1.49;81.82;102384.91;2063003;28;36408;-65
2022/03/05 01:40:15;;;;;;;;;;;;;;;-1.48;82.17;102383.16;2064341;28;19957;-68
2022/03/05 01:41:16;;;;;;;;;;;;;;;-1.49;82.23;102391.84;2062789;28;42719;-67
2022/03/05 01:42:21;;;;;;;;;;;;;;;-1.48;82.39;102391.03;2063609;28;20000;-67
2022/03/05 01:43:22;;;;;;;;;;;;;;;-1.48;82.14;102383.16;2063032;28;46865;-67
2022/03/05 01:44:24;;;;;;;;;;;;;;;-1.48;82.60;102388.41;2062510;28;45572;-67
2022/03/05 01:45:26;;;;;;;;;;;;;;;-1.51;82.82;102388.25;2062929;28;45492;-67
2022/03/05 01:46:38;;;;;;;;;;;;;;;-1.46;82.67;102386.75;2062860;28;42695;-67
2022/03/05 01:47:41;;;;;;;;;;;;;;;-1.47;82.65;102396.38;2062399;28;44296;-68
2022/03/05 01:48:42;;;;;;;;;;;;;;;-1.53;83.20;102388.16;2062659;28;46054;-67
2022/03/05 01:49:44;;;;;;;;;;;;;;;-1.55;82.97;102385.47;2062377;28;45568;-67
2022/03/05 01:50:47;;;;;;;;;;;;;;;-1.62;83.04;102385.97;2063426;28;38441;-67
2022/03/05 01:51:48;;;;;;;;;;;;;;;-1.60;82.97;102384.38;2062433;28;44373;-65
2022/03/05 01:52:50;;;;;;;;;;;;;;;-1.59;83.60;102386.16;2062853;28;44189;-67
2022/03/05 01:53:51;;;;;;;;;;;;;;;-1.57;84.21;102386.22;2062592;28;45773;-68
2022/03/05 01:54:53;;;;;;;;;;;;;;;-1.61;83.72;102379.91;2064130;28;20734;-68
2022/03/05 01:55:55;;;;;;;;;;;;;;;-1.63;83.98;102392.06;2062756;28;43149;-67
2022/03/05 01:56:57;;;;;;;;;;;;;;;-1.67;84.12;102378.69;2062929;28;44609;-67
2022/03/05 01:57:59;;;;;;;;;;;;;;;-1.70;83.53;102386.44;2001550;28;1733330;-68
2022/03/05 01:59:01;;;;;;;;;;;;;;;-1.74;83.68;102386.28;2063566;28;45259;-67
2022/03/05 02:00:05;;;;;;;;;;;;;;;-1.74;84.68;102390.66;2064107;28;20064;-68
2022/03/05 02:01:12;;;;;;;;;;;;;;;-1.77;84.22;102379.97;2064392;28;20013;-67
2022/03/05 02:02:14;;;;;;;;;;;;;;;-1.79;84.19;102386.88;2063443;28;45832;-67
2022/03/05 02:03:15;;;;;;;;;;;;;;;-1.79;84.57;102384.25;2063519;28;44304;-67
2022/03/05 02:04:18;;;;;;;;;;;;;;;-1.76;85.06;102389.63;2062967;28;45737;-67
2022/03/05 02:05:19;;;;;;;;;;;;;;;-1.75;85.00;102388.81;2063120;28;44253;-67
2022/03/05 02:06:21;;;;;;;;;;;;;;;-1.76;84.96;102384.38;2063332;28;45359;-68
2022/03/05 02:07:23;;;;;;;;;;;;;;;-1.79;84.67;102393.03;2062925;28;46408;-67
2022/03/05 02:08:25;;;;;;;;;;;;;;;-1.80;84.82;102385.94;2062921;28;44031;-65
2022/03/05 02:09:26;;;;;;;;;;;;;;;-1.78;84.94;102388.66;2063627;28;39977;-68
2022/03/05 02:10:28;;;;;;;;;;;;;;;-1.75;85.15;102396.69;2062761;28;45669;-68
2022/03/05 02:11:30;;;;;;;;;;;;;;;-1.74;84.97;102391.53;2063494;28;43138;-67
2022/03/05 02:12:32;;;;;;;;;;;;;;;-1.72;85.09;102396.88;2062757;28;43451;-67
2022/03/05 02:13:36;;;;;;;;;;;;;;;-1.75;85.17;102400.22;2062753;28;45039;-67
2022/03/05 02:14:37;;;;;;;;;;;;;;;-1.69;85.36;102391.75;2062537;28;46573;-67
2022/03/05 02:15:39;;;;;;;;;;;;;;;-1.64;84.99;102387.63;2062795;28;44597;-67
2022/03/05 02:16:41;;;;;;;;;;;;;;;-1.69;85.15;102396.09;2063216;28;44164;-67
2022/03/05 02:17:42;;;;;;;;;;;;;;;-1.64;85.42;102382.38;2063455;28;44533;-67
2022/03/05 02:18:49;;;;;;;;;;;;;;;-1.69;85.06;102385.59;2064024;28;19926;-67
2022/03/05 02:19:57;;;;;;;;;;;;;;;-1.67;84.90;102387.50;2064083;28;20790;-68
2022/03/05 02:20:59;;;;;;;;;;;;;;;-1.70;84.59;102389.97;2063325;28;46090;-66
2022/03/05 02:22:00;;;;;;;;;;;;;;;-1.73;85.09;102377.56;2063522;28;43990;-67
2022/03/05 02:23:02;;;;;;;;;;;;;;;-1.73;85.35;102379.31;2063021;28;47434;-66
2022/03/05 02:24:04;;;;;;;;;;;;;;;-1.66;85.68;102377.88;2063907;28;36994;-67
2022/03/05 02:25:06;;;;;;;;;;;;;;;-1.70;85.09;102376.84;2063308;28;45310;-66
2022/03/05 02:26:10;;;;;;;;;;;;;;;-1.72;85.29;102378.50;2063645;28;44876;-65
2022/03/05 02:27:11;;;;;;;;;;;;;;;-1.74;85.46;102381.03;2062719;28;46496;-67
2022/03/05 02:28:13;;;;;;;;;;;;;;;-1.74;85.41;102377.50;2063071;28;44923;-66
2022/03/05 02:29:14;;;;;;;;;;;;;;;-1.77;85.38;102375.63;2063335;28;44043;-67
2022/03/05 02:30:16;;;;;;;;;;;;;;;-1.73;85.57;102379.31;2062413;28;44864;-67
2022/03/05 02:31:17;;;;;;;;;;;;;;;-1.76;85.67;102376.50;2063101;28;45744;-67
2022/03/05 02:32:20;;;;;;;;;;;;;;;-1.82;85.51;102370.97;2064121;28;20248;-67
2022/03/05 02:33:22;;;;;;;;;;;;;;;-1.77;85.51;102375.63;2063195;28;46624;-67
2022/03/05 02:34:24;;;;;;;;;;;;;;;-1.80;85.65;102374.56;2063133;28;43810;-67
2022/03/05 02:35:26;;;;;;;;;;;;;;;-1.79;85.92;102372.03;2062657;28;45682;-67
2022/03/05 02:36:27;;;;;;;;;;;;;;;-1.76;85.68;102376.50;2062921;28;45571;-67
2022/03/05 02:37:29;;;;;;;;;;;;;;;-1.76;85.67;102371.25;2062860;28;45630;-66
2022/03/05 02:38:31;;;;;;;;;;;;;;;-1.81;85.86;102367.50;2063333;28;46187;-66
2022/03/05 02:39:32;;;;;;;;;;;;;;;-1.87;85.76;102370.72;2063200;28;44888;-66
2022/03/05 02:40:34;;;;;;;;;;;;;;;-1.86;86.22;102371.63;2062721;28;44146;-65
2022/03/05 02:41:39;;;;;;;;;;;;;;;-1.89;86.09;102375.00;2063595;28;19933;-67
2022/03/05 02:42:40;;;;;;;;;;;;;;;-1.87;86.05;102373.34;2063416;28;44011;-66
2022/03/05 02:43:42;;;;;;;;;;;;;;;-1.88;85.87;102365.38;2063108;28;45334;-66
2022/03/05 02:44:45;;;;;;;;;;;;;;;-1.89;86.02;102374.09;2063535;28;37296;-66
2022/03/05 02:45:49;;;;;;;;;;;;;;;-1.94;86.29;102365.97;2063286;28;44058;-66
2022/03/05 02:46:51;;;;;;;;;;;;;;;-1.95;85.99;102366.81;2063108;28;46510;-66
2022/03/05 02:47:52;;;;;;;;;;;;;;;-1.93;86.73;102363.44;2062942;28;43116;-66
2022/03/05 02:48:54;;;;;;;;;;;;;;;-1.96;85.82;102368.50;2063575;28;44370;-66
2022/03/05 02:49:56;;;;;;;;;;;;;;;-1.97;86.74;102371.97;2063179;28;45950;-66
2022/03/05 02:50:59;;;;;;;;;;;;;;;-1.99;86.32;102367.47;2064352;28;20781;-66
2022/03/05 02:52:01;;;;;;;;;;;;;;;-1.96;86.48;102370.25;2059031;28;20933;-65
2022/03/05 02:53:04;;;;;;;;;;;;;;;-1.95;86.52;102370.34;2063233;28;42797;-67
2022/03/05 02:54:05;;;;;;;;;;;;;;;-1.92;87.01;102372.19;2062973;28;41039;-67
2022/03/05 02:55:09;;;;;;;;;;;;;;;-1.91;86.39;102366.13;2064191;28;20803;-68
2022/03/05 02:56:10;;;;;;;;;;;;;;;-1.93;86.29;102366.06;2063034;28;43886;-68
2022/03/05 02:57:12;;;;;;;;;;;;;;;-1.88;86.68;102362.75;2063982;28;20779;-67
2022/03/05 02:58:14;;;;;;;;;;;;;;;-1.89;86.10;102368.84;2063119;28;44357;-67
2022/03/05 02:59:16;;;;;;;;;;;;;;;-1.95;86.63;102372.06;2063455;28;37264;-67
2022/03/05 03:00:19;;;;;;;;;;;;;;;-1.95;86.70;102372.06;2062889;28;45844;-68
2022/03/05 03:01:24;;;;;;;;;;;;;;;-1.96;86.70;102363.25;2065975;28;20872;-67
2022/03/05 03:02:26;;;;;;;;;;;;;;;-1.98;86.49;102362.28;2064395;28;45944;-67
2022/03/05 03:03:28;;;;;;;;;;;;;;;-1.98;86.99;102369.28;2065753;28;20700;-68
2022/03/05 03:04:31;;;;;;;;;;;;;;;-1.99;87.03;102365.75;2064773;28;45636;-66
2022/03/05 03:05:35;;;;;;;;;;;;;;;-1.90;86.75;102360.09;2064326;28;45256;-67
2022/03/05 03:06:36;;;;;;;;;;;;;;;-1.96;86.90;102368.50;2064148;28;45796;-68
2022/03/05 03:07:38;;;;;;;;;;;;;;;-1.97;86.61;102361.47;2064321;28;45509;-67
2022/03/05 03:08:40;;;;;;;;;;;;;;;-1.97;87.05;102364.09;2063966;28;45908;-67
2022/03/05 03:09:42;;;;;;;;;;;;;;;-1.95;86.85;102364.19;2064811;28;45092;-66
2022/03/05 03:10:44;;;;;;;;;;;;;;;-1.83;86.81;102361.28;2063930;28;41921;-67
2022/03/05 03:11:45;;;;;;;;;;;;;;;-1.86;86.39;102353.25;2064743;28;42669;-67
2022/03/05 03:12:47;;;;;;;;;;;;;;;-1.86;86.67;102361.13;2064338;28;44311;-67
2022/03/05 03:13:49;;;;;;;;;;;;;;;-1.86;86.16;102355.88;2064302;28;43860;-67
2022/03/05 03:14:51;;;;;;;;;;;;;;;-1.84;86.72;102364.75;2063941;28;43290;-67
2022/03/05 03:15:52;;;;;;;;;;;;;;;-1.92;86.18;102364.31;2063880;28;45075;-67
2022/03/05 03:16:55;;;;;;;;;;;;;;;-1.94;86.57;102368.59;2064564;28;19957;-67
2022/03/05 03:17:57;;;;;;;;;;;;;;;-1.95;86.94;102362.47;2063735;28;44625;-67
2022/03/05 03:18:58;;;;;;;;;;;;;;;-1.86;87.06;102361.13;2064656;28;36943;-67
2022/03/05 03:20:00;;;;;;;;;;;;;;;-1.91;87.34;102360.88;2064126;28;43733;-67
2022/03/05 03:21:02;;;;;;;;;;;;;;;-1.93;87.08;102368.69;2064067;28;46534;-67
2022/03/05 03:22:03;;;;;;;;;;;;;;;-1.99;86.77;102364.84;2063784;28;45208;-67
2022/03/05 03:23:05;;;;;;;;;;;;;;;-1.91;87.49;102368.75;2064435;28;44059;-67
2022/03/05 03:24:06;;;;;;;;;;;;;;;-1.90;86.91;102364.41;2064177;28;43927;-66
2022/03/05 03:25:10;;;;;;;;;;;;;;;-1.96;87.26;102365.88;2064664;28;42691;-67
2022/03/05 03:26:12;;;;;;;;;;;;;;;-1.98;87.23;102367.53;2065229;28;19922;-67
2022/03/05 03:27:14;;;;;;;;;;;;;;;-1.99;86.68;102376.25;2065312;28;19926;-67
2022/03/05 03:28:16;;;;;;;;;;;;;;;-1.97;87.49;102371.09;2064461;28;34162;-67
2022/03/05 03:29:18;;;;;;;;;;;;;;;-1.99;87.17;102365.75;2065747;28;21057;-67
2022/03/05 03:30:20;;;;;;;;;;;;;;;-1.97;87.68;102371.97;2064478;28;42682;-67
2022/03/05 03:31:22;;;;;;;;;;;;;;;-2.00;87.58;102365.69;2065061;28;19931;-67
2022/03/05 03:32:24;;;;;;;;;;;;;;;-1.94;87.62;102365.97;2063876;28;46037;-67
2022/03/05 03:33:26;;;;;;;;;;;;;;;-1.94;87.48;102371.22;2063669;28;45697;-66
2022/03/05 03:34:27;;;;;;;;;;;;;;;-1.94;87.81;102364.28;2063811;28;46565;-67
2022/03/05 03:35:29;;;;;;;;;;;;;;;-1.98;87.71;102359.66;2063584;28;40500;-67
2022/03/05 03:36:33;;;;;;;;;;;;;;;-1.89;87.44;102363.59;2064249;28;39538;-66
2022/03/05 03:37:35;;;;;;;;;;;;;;;-1.92;87.45;102360.00;2063819;28;45207;-67
2022/03/05 03:38:37;;;;;;;;;;;;;;;-1.94;87.44;102364.28;2063692;28;44274;-67
2022/03/05 03:39:40;;;;;;;;;;;;;;;-2.00;87.04;102361.31;2056864;28;20908;-66
2022/03/05 03:40:42;;;;;;;;;;;;;;;-1.99;87.33;102363.13;2056353;28;36226;-67
2022/03/05 03:41:44;;;;;;;;;;;;;;;-1.86;87.38;102363.75;2055975;28;44010;-67
2022/03/05 03:42:50;;;;;;;;;;;;;;;-1.91;87.58;102366.13;2056397;28;45759;-66
2022/03/05 03:43:51;;;;;;;;;;;;;;;-1.85;87.56;102370.78;2055656;28;43262;-67
2022/03/05 03:44:53;;;;;;;;;;;;;;;-1.91;87.17;102368.75;2055469;28;44629;-66
2022/03/05 03:45:58;;;;;;;;;;;;;;;-1.91;87.15;102374.00;2056349;28;44429;-67
2022/03/05 03:46:59;;;;;;;;;;;;;;;-1.93;87.56;102365.16;2056348;28;44208;-67
2022/03/05 03:48:01;;;;;;;;;;;;;;;-1.89;87.18;102366.22;2056075;28;45587;-66
2022/03/05 03:49:03;;;;;;;;;;;;;;;-1.88;86.87;102373.25;2056035;28;44620;-66
2022/03/05 03:50:07;;;;;;;;;;;;;;;-1.90;87.48;102367.03;2056124;28;45385;-67
2022/03/05 03:51:09;;;;;;;;;;;;;;;-1.88;87.37;102368.00;2056213;28;45806;-67
2022/03/05 03:52:13;;;;;;;;;;;;;;;-1.89;87.33;102377.63;2055896;28;43884;-67
2022/03/05 03:53:14;;;;;;;;;;;;;;;-1.92;87.13;102367.88;2055675;28;45028;-66
2022/03/05 03:54:17;;;;;;;;;;;;;;;-1.92;87.43;102370.50;2057037;28;19926;-67
2022/03/05 03:55:22;;;;;;;;;;;;;;;-1.88;87.24;102371.56;2055868;28;45850;-67
2022/03/05 03:56:23;;;;;;;;;;;;;;;-1.88;87.15;102368.94;2055800;28;46591;-67
2022/03/05 03:57:25;;;;;;;;;;;;;;;-1.85;87.50;102373.41;2055993;28;41613;-65
2022/03/05 03:58:27;;;;;;;;;;;;;;;-1.86;87.44;102375.16;2055759;28;44517;-65
2022/03/05 03:59:29;;;;;;;;;;;;;;;-1.86;87.06;102366.38;2057016;28;20835;-67
2022/03/05 04:00:30;;;;;;;;;;;;;;;-1.87;87.02;102368.09;2056335;28;44037;-66
2022/03/05 04:01:32;;;;;;;;;;;;;;;-1.85;87.04;102373.41;2056153;28;46132;-66
2022/03/05 04:02:34;;;;;;;;;;;;;;;-1.74;87.05;102374.88;2055999;28;40602;-66
2022/03/05 04:03:35;;;;;;;;;;;;;;;-1.78;86.86;102372.91;2056039;28;46910;-67
2022/03/05 04:04:37;;;;;;;;;;;;;;;-1.76;86.75;102377.44;2056152;28;44344;-67
2022/03/05 04:05:40;;;;;;;;;;;;;;;-1.76;86.38;102371.25;2056850;28;19934;-66
2022/03/05 04:09:26;;;;;;;;;;;;;;;-1.79;86.99;102382.53;2062694;28;20008;-67
2022/03/05 04:10:28;;;;;;;;;;;;;;;-1.90;86.76;102377.53;2064558;28;39452;-65
2022/03/05 04:11:29;;;;;;;;;;;;;;;-1.84;86.97;102380.50;2063333;28;43902;-66
2022/03/05 04:12:34;;;;;;;;;;;;;;;-1.84;87.12;102380.50;2062979;28;45000;-66
2022/03/05 04:13:36;;;;;;;;;;;;;;;-1.88;86.79;102375.88;2063885;28;43051;-65
2022/03/05 04:14:38;;;;;;;;;;;;;;;-1.93;86.78;102380.91;2064058;28;45172;-66
2022/03/05 04:15:40;;;;;;;;;;;;;;;-1.96;86.85;102373.75;2063943;28;45971;-66
2022/03/05 04:16:42;;;;;;;;;;;;;;;-1.87;87.27;102378.59;2064126;28;45509;-65
2022/03/05 04:17:44;;;;;;;;;;;;;;;-1.88;87.33;102375.88;2063602;28;46118;-66
2022/03/05 04:18:46;;;;;;;;;;;;;;;-1.93;87.01;102379.19;2064211;28;43922;-66
2022/03/05 04:19:48;;;;;;;;;;;;;;;-1.99;87.35;102376.25;2063258;28;44718;-66
2022/03/05 04:20:49;;;;;;;;;;;;;;;-1.97;87.32;102376.34;2064190;28;47009;-66
2022/03/05 04:21:51;;;;;;;;;;;;;;;-1.96;86.71;102379.00;2064574;28;19926;-67
2022/03/05 04:22:53;;;;;;;;;;;;;;;-2.02;86.63;102381.34;2064612;28;39447;-66
2022/03/05 04:23:54;;;;;;;;;;;;;;;-1.99;87.55;102378.88;2063612;28;43135;-65
2022/03/05 04:24:56;;;;;;;;;;;;;;;-1.95;87.41;102377.31;2064021;28;43430;-65
2022/03/05 04:25:57;;;;;;;;;;;;;;;-2.02;86.92;102377.81;2064320;28;45165;-65
2022/03/05 04:27:01;;;;;;;;;;;;;;;-2.06;87.13;102378.47;2065509;28;19923;-65
2022/03/05 04:28:03;;;;;;;;;;;;;;;-2.06;87.08;102376.75;2063746;28;46575;-66
2022/03/05 04:29:05;;;;;;;;;;;;;;;-2.07;86.99;102372.31;2063798;28;42731;-66
2022/03/05 04:30:08;;;;;;;;;;;;;;;-2.11;87.41;102376.50;2064364;28;41019;-66
2022/03/05 04:31:10;;;;;;;;;;;;;;;-2.12;87.67;102376.44;2065074;28;19977;-66
2022/03/05 04:32:11;;;;;;;;;;;;;;;-2.19;87.32;102372.59;2062812;28;44414;-67
2022/03/05 04:33:13;;;;;;;;;;;;;;;-2.21;87.68;102371.59;2064890;28;19930;-65
2022/03/05 04:34:15;;;;;;;;;;;;;;;-2.19;87.44;102380.47;2063515;28;44417;-68
2022/03/05 04:35:16;;;;;;;;;;;;;;;-2.21;87.94;102382.09;2064086;28;43974;-66
2022/03/05 04:36:18;;;;;;;;;;;;;;;-2.20;87.95;102380.38;2063560;28;46370;-66
2022/03/05 04:37:19;;;;;;;;;;;;;;;-2.13;87.36;102377.25;2064250;28;44244;-67
2022/03/05 04:38:24;;;;;;;;;;;;;;;-2.23;87.96;102382.84;2064846;28;19930;-67
2022/03/05 04:39:28;;;;;;;;;;;;;;;-2.24;87.33;102381.03;2064887;28;19958;-66
2022/03/05 04:40:30;;;;;;;;;;;;;;;-2.24;87.59;102381.03;2063493;28;47124;-66
2022/03/05 04:41:31;;;;;;;;;;;;;;;-2.19;87.64;102377.84;2064218;28;43941;-64
2022/03/05 04:42:33;;;;;;;;;;;;;;;-2.28;87.24;102385.22;2063564;28;44054;-67
2022/03/05 04:43:35;;;;;;;;;;;;;;;-2.29;88.00;102380.81;2063859;28;45369;-66
2022/03/05 04:44:36;;;;;;;;;;;;;;;-2.30;88.38;102381.59;2064058;28;44417;-66
2022/03/05 04:45:40;;;;;;;;;;;;;;;-2.35;87.68;102375.22;2063890;28;45650;-66
2022/03/05 04:46:41;;;;;;;;;;;;;;;-2.39;88.39;102373.25;2063448;28;46888;-67
2022/03/05 04:47:47;;;;;;;;;;;;;;;-2.34;88.19;102375.31;2064256;28;41853;-66
2022/03/05 04:48:49;;;;;;;;;;;;;;;-2.40;88.59;102372.38;2063262;28;45432;-66
2022/03/05 04:49:53;;;;;;;;;;;;;;;-2.46;88.41;102379.88;2063515;28;44408;-65
2022/03/05 04:50:54;;;;;;;;;;;;;;;-2.37;88.44;102376.84;2063585;28;45981;-68
2022/03/05 04:51:56;;;;;;;;;;;;;;;-2.43;88.72;102374.81;2063739;28;20105;-67
2022/03/05 04:52:58;;;;;;;;;;;;;;;-2.46;88.87;102369.41;2063530;28;42864;-66
2022/03/05 04:53:59;;;;;;;;;;;;;;;-2.52;88.25;102369.09;2063699;28;43865;-66
2022/03/05 04:55:03;;;;;;;;;;;;;;;-2.49;88.68;102371.88;2063384;28;44815;-66
2022/03/05 04:56:04;;;;;;;;;;;;;;;-2.53;89.08;102372.50;2064105;28;44075;-66
2022/03/05 04:57:06;;;;;;;;;;;;;;;-2.55;89.14;102367.22;2063602;28;44294;-65
2022/03/05 04:58:09;;;;;;;;;;;;;;;-2.58;88.96;102374.03;2064722;28;19937;-66
2022/03/05 04:59:11;;;;;;;;;;;;;;;-2.49;88.79;102374.50;2064854;28;20108;-67
2022/03/05 05:00:13;;;;;;;;;;;;;;;-2.56;89.22;102369.75;2063858;28;46152;-66
2022/03/05 05:01:15;;;;;;;;;;;;;;;-2.53;88.96;102368.19;2063571;28;43035;-66
2022/03/05 05:02:17;;;;;;;;;;;;;;;-2.54;89.59;102369.00;2063365;28;45828;-68
2022/03/05 05:03:18;;;;;;;;;;;;;;;-2.59;88.98;102366.94;2063822;28;44641;-66
2022/03/05 05:04:20;;;;;;;;;;;;;;;-2.62;88.72;102365.09;2064069;28;39789;-66
2022/03/05 05:05:22;;;;;;;;;;;;;;;-2.69;88.72;102361.22;2063669;28;46417;-65
2022/03/05 05:06:24;;;;;;;;;;;;;;;-2.74;89.08;102367.94;2063852;28;44450;-67
2022/03/05 05:07:26;;;;;;;;;;;;;;;-2.71;89.17;102369.81;2063593;28;43598;-67
2022/03/05 05:08:28;;;;;;;;;;;;;;;-2.73;88.64;102367.13;2064015;28;19996;-67
2022/03/05 05:09:30;;;;;;;;;;;;;;;-2.73;88.56;102361.88;2063394;28;42577;-67
2022/03/05 05:10:33;;;;;;;;;;;;;;;-2.71;89.01;102361.94;2063810;28;45351;-67
2022/03/05 05:11:35;;;;;;;;;;;;;;;-2.66;88.66;102363.09;2063617;28;43068;-68
2022/03/05 05:12:37;;;;;;;;;;;;;;;-2.53;88.46;102362.03;2064576;28;19926;-68
2022/03/05 05:13:39;;;;;;;;;;;;;;;-2.57;88.39;102363.59;2063334;28;45725;-67
2022/03/05 05:14:40;;;;;;;;;;;;;;;-2.57;88.92;102365.31;2062907;28;44720;-67
2022/03/05 05:15:45;;;;;;;;;;;;;;;-2.64;88.13;102363.19;2063238;28;45879;-65
2022/03/05 05:16:47;;;;;;;;;;;;;;;-2.63;88.03;102365.00;2063379;28;45916;-67
2022/03/05 05:17:48;;;;;;;;;;;;;;;-2.61;88.31;102372.09;2063451;28;44241;-67
2022/03/05 05:20:11;;;;;;;;;;;;;;;-2.61;88.65;102373.84;2064323;28;19930;-68
2022/03/05 05:21:12;;;;;;;;;;;;;;;-2.56;88.09;102375.88;2063594;28;44259;-67
2022/03/05 05:22:14;;;;;;;;;;;;;;;-2.57;88.18;102371.44;2063368;28;46273;-68